Time;durP1;ratioP1;P1;durP2;ratioP2;P2;SDS_P1;SDS_P2;PMS_P1;PMS_P2;Temp;Humidity;BMP_temperature;BMP_pressure;BME280_temperature;BME280_humidity;BME280_pressure;Samples;Min_cycle;Max_cycle;Signal;HPM_P1;HPM_P2
2022/03/21 00:01:53;;;;;;;14.57;7.20;;;;;;;;;;4896764;29;20127;-74
2022/03/21 00:04:19;;;;;;;14.15;6.38;;;;;;;;;;4897284;29;20047;-74
2022/03/21 00:06:45;;;;;;;9.73;5.75;;;;;;;;;;4897290;29;20028;-71
2022/03/21 00:09:11;;;;;;;11.15;6.03;;;;;;;;;;4897277;29;20064;-74
2022/03/21 00:11:36;;;;;;;11.25;5.82;;;;;;;;;;4897268;29;20035;-75
2022/03/21 00:14:04;;;;;;;11.45;5.95;;;;;;;;;;4896533;29;20040;-75
2022/03/21 00:16:30;;;;;;;11.65;5.95;;;;;;;;;;4897098;29;20135;-70
2022/03/21 00:18:56;;;;;;;12.27;6.32;;;;;;;;;;4897080;29;20076;-71
2022/03/21 00:21:22;;;;;;;12.38;6.10;;;;;;;;;;4896981;29;20037;-69
2022/03/21 00:23:48;;;;;;;13.18;5.70;;;;;;;;;;4896947;29;20128;-68
2022/03/21 00:26:15;;;;;;;10.18;5.88;;;;;;;;;;4896993;29;20029;-75
2022/03/21 00:28:41;;;;;;;9.93;5.38;;;;;;;;;;4896820;29;20107;-70
2022/03/21 00:31:07;;;;;;;10.65;5.22;;;;;;;;;;4896451;29;20115;-75
2022/03/21 00:33:33;;;;;;;9.77;5.57;;;;;;;;;;4896428;29;20047;-76
2022/03/21 00:36:00;;;;;;;10.68;5.95;;;;;;;;;;4895575;29;20176;-70
2022/03/21 00:38:26;;;;;;;13.45;6.50;;;;;;;;;;4897207;29;20032;-71
2022/03/21 00:40:52;;;;;;;13.18;6.88;;;;;;;;;;4896740;29;20111;-75
2022/03/21 00:43:23;;;;;;;11.93;6.75;;;;;;;;;;4895462;29;20551;-75
2022/03/21 00:45:54;;;;;;;17.05;6.75;;;;;;;;;;4896991;29;20043;-75
2022/03/21 00:48:22;;;;;;;12.00;6.90;;;;;;;;;;4896875;29;20057;-71
2022/03/21 00:50:48;;;;;;;11.80;6.47;;;;;;;;;;4896636;29;20052;-69
2022/03/21 00:53:16;;;;;;;12.32;6.03;;;;;;;;;;4896463;29;20396;-73
2022/03/21 00:55:42;;;;;;;11.90;6.15;;;;;;;;;;4896117;29;20461;-71
2022/03/21 00:58:08;;;;;;;10.38;5.32;;;;;;;;;;4896558;29;20120;-71
2022/03/21 01:00:34;;;;;;;11.93;6.07;;;;;;;;;;4896423;29;20534;-71
2022/03/21 01:03:01;;;;;;;16.23;7.70;;;;;;;;;;4897924;29;20036;-71
2022/03/21 01:05:28;;;;;;;13.80;7.78;;;;;;;;;;4900529;29;20028;-68
2022/03/21 01:07:56;;;;;;;18.25;7.28;;;;;;;;;;4900594;29;20072;-70
2022/03/21 01:10:22;;;;;;;12.27;6.90;;;;;;;;;;4900094;29;20032;-75
2022/03/21 01:12:50;;;;;;;11.82;7.30;;;;;;;;;;4899804;29;20032;-75
2022/03/21 01:15:17;;;;;;;11.23;6.53;;;;;;;;;;4899932;29;20500;-75
2022/03/21 01:17:45;;;;;;;17.15;7.32;;;;;;;;;;4898330;29;20548;-70
2022/03/21 01:20:16;;;;;;;9.32;5.60;;;;;;;;;;4899817;29;20036;-71
2022/03/21 01:22:42;;;;;;;13.60;6.22;;;;;;;;;;4899893;29;20553;-73
2022/03/21 01:25:10;;;;;;;11.45;6.15;;;;;;;;;;4900247;29;20035;-74
2022/03/21 01:27:38;;;;;;;11.95;5.72;;;;;;;;;;4899863;29;20437;-68
2022/03/21 01:30:06;;;;;;;9.60;5.60;;;;;;;;;;4899494;29;20088;-67
2022/03/21 01:32:33;;;;;;;10.80;5.45;;;;;;;;;;4899867;29;20044;-66
2022/03/21 01:34:58;;;;;;;12.52;6.47;;;;;;;;;;4899302;29;20051;-70
2022/03/21 01:37:24;;;;;;;8.93;5.28;;;;;;;;;;4899700;29;20064;-67
2022/03/21 01:39:50;;;;;;;11.52;5.38;;;;;;;;;;4899586;29;20559;-66
2022/03/21 01:42:16;;;;;;;9.40;5.00;;;;;;;;;;4899372;29;20045;-70
2022/03/21 01:44:42;;;;;;;19.63;5.78;;;;;;;;;;4899508;29;20021;-73
2022/03/21 01:47:08;;;;;;;14.18;5.55;;;;;;;;;;4899865;29;20510;-70
2022/03/21 01:49:33;;;;;;;10.88;5.70;;;;;;;;;;4900001;29;20028;-72
2022/03/21 01:52:00;;;;;;;12.27;6.35;;;;;;;;;;4899414;29;20053;-75
2022/03/21 01:57:11;;;;;;;7.95;4.70;;;;;;;;;;4899565;29;20036;-72
2022/03/21 01:59:37;;;;;;;10.57;4.95;;;;;;;;;;4899225;29;20020;-70
2022/03/21 02:02:06;;;;;;;11.82;5.57;;;;;;;;;;4898810;29;20040;-68
2022/03/21 02:04:33;;;;;;;9.93;4.95;;;;;;;;;;4899077;29;20152;-67
2022/03/21 02:06:59;;;;;;;8.63;4.97;;;;;;;;;;4899083;29;20028;-74
2022/03/21 02:09:25;;;;;;;8.38;4.78;;;;;;;;;;4899139;29;20103;-76
2022/03/21 02:11:51;;;;;;;7.95;4.63;;;;;;;;;;4898714;29;20094;-70
2022/03/21 02:14:17;;;;;;;11.15;6.10;;;;;;;;;;4899026;29;20072;-74
2022/03/21 02:16:43;;;;;;;12.05;4.95;;;;;;;;;;4899250;29;20081;-74
2022/03/21 02:19:34;;;;;;;9.70;5.07;;;;;;;;;;4899261;29;20036;-72
2022/03/21 02:22:33;;;;;;;10.98;5.20;;;;;;;;;;4898844;29;20044;-69
2022/03/21 02:25:14;;;;;;;11.52;4.78;;;;;;;;;;4899168;29;20044;-72
2022/03/21 02:27:41;;;;;;;12.13;5.80;;;;;;;;;;4899138;29;20044;-74
2022/03/21 02:30:07;;;;;;;13.30;6.60;;;;;;;;;;4898987;29;20080;-74
2022/03/21 02:32:34;;;;;;;10.85;6.80;;;;;;;;;;4913506;29;20149;-72
2022/03/21 02:35:02;;;;;;;11.23;6.10;;;;;;;;;;4899147;29;20029;-71
2022/03/21 02:37:27;;;;;;;10.93;6.05;;;;;;;;;;4899016;29;20039;-69
2022/03/21 02:39:55;;;;;;;10.88;5.97;;;;;;;;;;4899410;29;20028;-66
2022/03/21 02:42:21;;;;;;;14.40;6.75;;;;;;;;;;4894061;29;20089;-68
2022/03/21 02:44:47;;;;;;;11.70;5.60;;;;;;;;;;4898237;29;20063;-72
2022/03/21 02:47:13;;;;;;;14.00;6.43;;;;;;;;;;4898527;29;20033;-71
2022/03/21 02:49:39;;;;;;;16.88;7.60;;;;;;;;;;4896891;29;20036;-70
2022/03/21 02:52:06;;;;;;;14.18;6.15;;;;;;;;;;4898017;29;20045;-68
2022/03/21 02:54:33;;;;;;;14.13;5.90;;;;;;;;;;4896860;29;20033;-69
2022/03/21 02:56:59;;;;;;;10.18;6.40;;;;;;;;;;4897972;29;20073;-72
2022/03/21 02:59:25;;;;;;;14.23;6.75;;;;;;;;;;4898161;29;20055;-71
2022/03/21 03:01:54;;;;;;;12.98;6.07;;;;;;;;;;4897922;29;20095;-68
2022/03/21 03:04:21;;;;;;;16.02;7.38;;;;;;;;;;4897866;29;20033;-68
2022/03/21 03:06:47;;;;;;;11.35;6.90;;;;;;;;;;4896776;29;20032;-68
2022/03/21 03:09:13;;;;;;;15.05;7.55;;;;;;;;;;4897739;29;20520;-68
2022/03/21 03:11:39;;;;;;;12.68;7.47;;;;;;;;;;4897620;29;20242;-66
2022/03/21 03:14:06;;;;;;;15.68;7.63;;;;;;;;;;4894829;29;20048;-73
2022/03/21 03:16:32;;;;;;;15.30;7.72;;;;;;;;;;4897403;29;20041;-67
2022/03/21 03:18:58;;;;;;;14.60;7.35;;;;;;;;;;4897706;29;20036;-68
2022/03/21 03:21:26;;;;;;;12.13;6.93;;;;;;;;;;4897508;29;20142;-65
2022/03/21 03:23:53;;;;;;;16.42;6.93;;;;;;;;;;4897436;29;20021;-69
2022/03/21 03:26:19;;;;;;;9.98;6.20;;;;;;;;;;4896980;29;20403;-68
2022/03/21 03:28:45;;;;;;;15.68;7.22;;;;;;;;;;4897267;29;20037;-66
2022/03/21 03:31:15;;;;;;;12.32;7.13;;;;;;;;;;4897631;29;20070;-69
2022/03/21 03:33:45;;;;;;;14.70;7.03;;;;;;;;;;4897406;29;20483;-67
2022/03/21 03:36:11;;;;;;;29.63;9.15;;;;;;;;;;4897670;29;20033;-69
2022/03/21 03:38:37;;;;;;;20.23;7.95;;;;;;;;;;4897593;29;20063;-68
2022/03/21 03:41:03;;;;;;;16.67;7.20;;;;;;;;;;4897407;29;20395;-67
2022/03/21 03:43:29;;;;;;;11.27;6.68;;;;;;;;;;4897054;29;20459;-68
2022/03/21 03:45:57;;;;;;;13.18;7.05;;;;;;;;;;4894513;29;20035;-67
2022/03/21 03:48:24;;;;;;;16.75;7.82;;;;;;;;;;4897285;29;20043;-68
2022/03/21 03:50:50;;;;;;;22.70;7.50;;;;;;;;;;4896992;29;20032;-68
2022/03/21 03:53:18;;;;;;;14.20;7.25;;;;;;;;;;4897056;29;20428;-68
2022/03/21 03:55:44;;;;;;;14.68;6.78;;;;;;;;;;4896694;29;20032;-68
2022/03/21 03:58:10;;;;;;;18.98;6.30;;;;;;;;;;4896768;29;20037;-68
2022/03/21 04:00:36;;;;;;;16.23;6.82;;;;;;;;;;4896772;29;20024;-67
2022/03/21 04:05:47;;;;;;;17.90;7.25;;;;;;;;;;4896975;29;20033;-68
2022/03/21 04:08:12;;;;;;;10.85;6.60;;;;;;;;;;4897170;29;20039;-68
2022/03/21 04:10:38;;;;;;;16.45;7.72;;;;;;;;;;4897088;29;20377;-74
2022/03/21 04:13:04;;;;;;;11.85;6.65;;;;;;;;;;4896755;29;20032;-68
2022/03/21 04:15:30;;;;;;;15.90;6.20;;;;;;;;;;4893841;29;20080;-73
2022/03/21 04:18:00;;;;;;;12.98;6.85;;;;;;;;;;4895429;29;20119;-75
2022/03/21 04:20:29;;;;;;;18.45;6.53;;;;;;;;;;4896736;29;20073;-75
2022/03/21 04:22:55;;;;;;;22.33;8.85;;;;;;;;;;4896772;29;20021;-73
2022/03/21 04:25:20;;;;;;;29.00;9.57;;;;;;;;;;4896571;29;20035;-71
2022/03/21 04:27:46;;;;;;;17.40;7.70;;;;;;;;;;4895305;29;20413;-72
2022/03/21 04:30:12;;;;;;;12.45;7.13;;;;;;;;;;4896071;29;20041;-73
2022/03/21 04:32:38;;;;;;;21.42;8.48;;;;;;;;;;4894886;29;20032;-77
2022/03/21 04:35:04;;;;;;;12.75;6.65;;;;;;;;;;4896341;29;20036;-74
2022/03/21 04:37:30;;;;;;;12.40;6.72;;;;;;;;;;4894625;29;20446;-71
2022/03/21 04:39:56;;;;;;;14.25;7.28;;;;;;;;;;4896648;29;20168;-75
2022/03/21 04:42:22;;;;;;;16.73;7.10;;;;;;;;;;4910453;29;20102;-70
2022/03/21 04:44:50;;;;;;;14.15;6.53;;;;;;;;;;4896064;29;20039;-74
2022/03/21 04:47:17;;;;;;;14.23;6.70;;;;;;;;;;4893134;29;20084;-68
2022/03/21 04:49:44;;;;;;;14.52;6.70;;;;;;;;;;4896070;29;20437;-74
2022/03/21 04:52:10;;;;;;;17.83;7.20;;;;;;;;;;4896239;29;20441;-70
2022/03/21 04:54:36;;;;;;;15.50;7.95;;;;;;;;;;4895581;29;20044;-75
2022/03/21 04:57:01;;;;;;;18.60;8.10;;;;;;;;;;4894992;29;20472;-68
2022/03/21 04:59:27;;;;;;;15.57;7.57;;;;;;;;;;4895783;29;20119;-68
2022/03/21 05:01:53;;;;;;;14.63;7.70;;;;;;;;;;4896502;29;20112;-67
2022/03/21 05:04:19;;;;;;;14.02;7.45;;;;;;;;;;4895440;29;20032;-70
2022/03/21 05:06:46;;;;;;;13.00;6.80;;;;;;;;;;4895525;29;20032;-68
2022/03/21 05:09:12;;;;;;;11.75;6.57;;;;;;;;;;4896894;29;20060;-71
2022/03/21 05:11:38;;;;;;;13.90;6.97;;;;;;;;;;4897069;29;20032;-66
2022/03/21 05:14:04;;;;;;;15.40;7.07;;;;;;;;;;4896601;29;20365;-68
2022/03/21 05:16:29;;;;;;;12.27;7.03;;;;;;;;;;4893885;29;20064;-69
2022/03/21 05:18:55;;;;;;;13.95;8.15;;;;;;;;;;4895684;29;20112;-68
2022/03/21 05:21:21;;;;;;;13.68;6.82;;;;;;;;;;4895905;29;20120;-69
2022/03/21 05:32:00;;;;;;;15.23;7.15;;;;;;;;;;4895048;29;20051;-69
2022/03/21 05:37:10;;;;;;;15.70;6.78;;;;;;;;;;4895607;29;20039;-73
2022/03/21 05:40:31;;;;;;;9.77;6.20;;;;;;;;;;4896920;29;20128;-73
2022/03/21 05:42:21;;;;;;;18.77;7.75;;;;;;;;;;4896725;29;20033;-74
2022/03/21 05:44:47;;;;;;;18.00;8.80;;;;;;;;;;4896580;29;20111;-71
2022/03/21 05:47:13;;;;;;;19.05;9.05;;;;;;;;;;4896666;29;20108;-75
2022/03/21 05:49:38;;;;;;;16.95;9.32;;;;;;;;;;4896574;29;20655;-75
2022/03/21 05:52:05;;;;;;;15.55;8.80;;;;;;;;;;4897646;29;20044;-75
2022/03/21 05:54:30;;;;;;;20.13;8.50;;;;;;;;;;4899827;29;20029;-74
2022/03/21 05:56:56;;;;;;;15.25;8.15;;;;;;;;;;4898702;29;20053;-75
2022/03/21 06:02:07;;;;;;;12.27;7.32;;;;;;;;;;4899131;29;20087;-73
2022/03/21 06:04:33;;;;;;;14.63;7.75;;;;;;;;;;4897924;29;20121;-75
2022/03/21 06:06:59;;;;;;;11.63;7.63;;;;;;;;;;4896902;29;20045;-72
2022/03/21 06:09:24;;;;;;;12.80;7.25;;;;;;;;;;4898470;29;20029;-74
2022/03/21 06:11:50;;;;;;;14.50;7.47;;;;;;;;;;4898559;29;20177;-78
2022/03/21 06:14:20;;;;;;;22.00;8.80;;;;;;;;;;4898479;29;20052;-76
2022/03/21 06:16:47;;;;;;;19.58;8.32;;;;;;;;;;4897973;29;20048;-77
2022/03/21 06:19:12;;;;;;;16.73;8.02;;;;;;;;;;4898388;29;20039;-76
2022/03/21 06:21:38;;;;;;;12.20;7.45;;;;;;;;;;4898829;29;20476;-79
2022/03/21 06:24:04;;;;;;;14.38;8.18;;;;;;;;;;4898802;29;20039;-78
2022/03/21 06:26:30;;;;;;;14.15;8.60;;;;;;;;;;4898086;29;20072;-74
2022/03/21 06:28:56;;;;;;;15.32;9.20;;;;;;;;;;4898402;29;20052;-76
2022/03/21 06:31:21;;;;;;;18.63;9.15;;;;;;;;;;4899055;29;20071;-75
2022/03/21 06:33:47;;;;;;;17.83;9.10;;;;;;;;;;4899343;29;20116;-77
2022/03/21 06:36:14;;;;;;;14.68;8.65;;;;;;;;;;4898930;29;20037;-77
2022/03/21 06:38:40;;;;;;;13.45;8.00;;;;;;;;;;4899094;29;20032;-77
2022/03/21 06:41:07;;;;;;;16.73;8.00;;;;;;;;;;4898429;29;20128;-73
2022/03/21 06:43:33;;;;;;;17.73;8.55;;;;;;;;;;4898850;29;20059;-78
2022/03/21 06:45:58;;;;;;;16.73;8.25;;;;;;;;;;4898706;29;20068;-76
2022/03/21 06:48:27;;;;;;;20.70;8.80;;;;;;;;;;4913052;29;20409;-72
2022/03/21 06:50:55;;;;;;;18.50;8.90;;;;;;;;;;4898233;29;20107;-71
2022/03/21 06:53:21;;;;;;;13.05;7.50;;;;;;;;;;4898244;29;20028;-74
2022/03/21 06:55:47;;;;;;;15.02;7.88;;;;;;;;;;4898272;29;20055;-73
2022/03/21 06:58:14;;;;;;;13.55;6.97;;;;;;;;;;4897922;29;20464;-72
2022/03/21 07:00:41;;;;;;;10.57;7.00;;;;;;;;;;4897063;29;20037;-75
2022/03/21 07:03:08;;;;;;;13.90;7.68;;;;;;;;;;4898286;29;20098;-73
2022/03/21 07:05:37;;;;;;;13.05;6.68;;;;;;;;;;4897467;29;20024;-73
2022/03/21 07:08:04;;;;;;;11.13;6.95;;;;;;;;;;4898395;29;20054;-71
2022/03/21 07:10:34;;;;;;;16.98;7.40;;;;;;;;;;4898028;29;20051;-77
2022/03/21 07:13:01;;;;;;;12.88;6.05;;;;;;;;;;4898518;29;20128;-78
2022/03/21 07:15:27;;;;;;;12.38;5.82;;;;;;;;;;4912501;29;20136;-76
2022/03/21 07:17:55;;;;;;;13.18;7.35;;;;;;;;;;4898133;29;20140;-75
2022/03/21 07:20:21;;;;;;;12.20;7.07;;;;;;;;;;4898199;29;20051;-74
2022/03/21 07:22:46;;;;;;;16.88;7.20;;;;;;;;;;4898254;29;20391;-74
2022/03/21 07:25:12;;;;;;;12.73;7.25;;;;;;;;;;4898256;29;20103;-77
2022/03/21 07:27:38;;;;;;;15.07;7.03;;;;;;;;;;4896829;29;20037;-76
2022/03/21 07:30:05;;;;;;;13.18;8.15;;;;;;;;;;4897692;29;20031;-77
2022/03/21 07:32:31;;;;;;;19.15;7.82;;;;;;;;;;4897359;29;20484;-76
2022/03/21 07:34:58;;;;;;;14.65;7.05;;;;;;;;;;4897653;29;20031;-75
2022/03/21 07:37:24;;;;;;;14.15;7.78;;;;;;;;;;4898059;29;20045;-75
2022/03/21 07:39:50;;;;;;;12.98;8.27;;;;;;;;;;4898127;29;20111;-74
2022/03/21 07:42:16;;;;;;;22.02;9.80;;;;;;;;;;4897436;29;20127;-73
2022/03/21 07:47:28;;;;;;;16.52;7.55;;;;;;;;;;4897690;29;20056;-77
2022/03/21 07:49:55;;;;;;;15.18;8.20;;;;;;;;;;4897750;29;20115;-73
2022/03/21 07:52:21;;;;;;;13.35;7.32;;;;;;;;;;4897371;29;20033;-76
2022/03/21 07:54:53;;;;;;;12.45;7.55;;;;;;;;;;4897511;29;20055;-77
2022/03/21 07:57:27;;;;;;;12.15;7.22;;;;;;;;;;4898001;29;20033;-76
2022/03/21 07:59:53;;;;;;;16.45;9.05;;;;;;;;;;4897514;29;20043;-73
2022/03/21 08:02:19;;;;;;;10.95;6.72;;;;;;;;;;4897477;29;20040;-77
2022/03/21 08:04:47;;;;;;;11.18;7.53;;;;;;;;;;4897409;29;20040;-75
2022/03/21 08:07:16;;;;;;;11.95;6.55;;;;;;;;;;4896783;29;20506;-75
2022/03/21 08:09:42;;;;;;;13.02;7.60;;;;;;;;;;4897233;29;20040;-75
2022/03/21 08:12:09;;;;;;;15.35;8.75;;;;;;;;;;4911684;29;20021;-72
2022/03/21 08:14:36;;;;;;;11.18;7.35;;;;;;;;;;4896977;29;20063;-75
2022/03/21 08:17:02;;;;;;;14.02;6.95;;;;;;;;;;4897359;29;20111;-76
2022/03/21 08:19:29;;;;;;;13.88;7.05;;;;;;;;;;4897141;29;20067;-78
2022/03/21 08:21:55;;;;;;;13.05;7.05;;;;;;;;;;4896930;29;20032;-76
2022/03/21 08:24:22;;;;;;;15.07;7.00;;;;;;;;;;4896594;29;20047;-76
2022/03/21 08:26:48;;;;;;;13.65;7.82;;;;;;;;;;4897270;29;20048;-75
2022/03/21 08:29:15;;;;;;;13.00;7.88;;;;;;;;;;4911662;29;20552;-76
2022/03/21 08:31:41;;;;;;;12.68;7.05;;;;;;;;;;4897098;29;20120;-74
2022/03/21 08:34:07;;;;;;;12.68;7.15;;;;;;;;;;4897153;29;20136;-74
2022/03/21 08:36:33;;;;;;;18.35;7.97;;;;;;;;;;4896848;29;20119;-72
2022/03/21 08:38:59;;;;;;;14.57;8.80;;;;;;;;;;4896597;29;20048;-74
2022/03/21 08:41:25;;;;;;;12.43;7.15;;;;;;;;;;4896518;29;20033;-76
2022/03/21 08:43:52;;;;;;;12.10;7.13;;;;;;;;;;4895419;29;20043;-76
2022/03/21 08:46:17;;;;;;;11.70;7.70;;;;;;;;;;4896589;29;20388;-75
2022/03/21 08:51:27;;;;;;;12.27;7.35;;;;;;;;;;4896348;29;20036;-75
2022/03/21 08:53:53;;;;;;;11.15;6.95;;;;;;;;;;4896404;29;20029;-71
2022/03/21 08:56:19;;;;;;;16.13;8.88;;;;;;;;;;4896550;29;20484;-74
2022/03/21 08:58:45;;;;;;;15.88;9.02;;;;;;;;;;4896477;29;20029;-75
2022/03/21 09:01:10;;;;;;;12.45;8.13;;;;;;;;;;4896542;29;20445;-75
2022/03/21 09:03:36;;;;;;;11.52;7.40;;;;;;;;;;4896339;29;20033;-76
2022/03/21 09:06:02;;;;;;;18.27;8.50;;;;;;;;;;4896524;29;20036;-74
2022/03/21 09:08:27;;;;;;;14.50;7.80;;;;;;;;;;4896798;29;20575;-74
2022/03/21 09:10:54;;;;;;;12.55;6.70;;;;;;;;;;4896713;29;20068;-75
2022/03/21 09:13:19;;;;;;;12.77;7.35;;;;;;;;;;4896815;29;20021;-72
2022/03/21 09:15:45;;;;;;;14.82;7.80;;;;;;;;;;4896253;29;20053;-73
2022/03/21 09:18:11;;;;;;;13.52;7.45;;;;;;;;;;4896198;29;20088;-72
2022/03/21 09:20:37;;;;;;;13.02;6.85;;;;;;;;;;4896440;29;20065;-72
2022/03/21 09:23:04;;;;;;;13.40;7.80;;;;;;;;;;4911039;29;20025;-70
2022/03/21 09:25:30;;;;;;;11.93;6.97;;;;;;;;;;4899998;29;20040;-72
2022/03/21 09:27:56;;;;;;;13.00;7.53;;;;;;;;;;4898575;29;20329;-73
2022/03/21 09:30:23;;;;;;;14.65;7.65;;;;;;;;;;4899994;29;20071;-73
2022/03/21 09:32:50;;;;;;;12.13;8.02;;;;;;;;;;4899551;29;20124;-72
2022/03/21 09:35:16;;;;;;;12.18;8.05;;;;;;;;;;4899786;29;20400;-72
2022/03/21 09:37:42;;;;;;;11.48;7.18;;;;;;;;;;4900092;29;20020;-71
2022/03/21 09:40:09;;;;;;;14.00;9.02;;;;;;;;;;4899956;29;20096;-71
2022/03/21 09:42:36;;;;;;;14.02;6.88;;;;;;;;;;4899660;29;20036;-72
2022/03/21 09:45:03;;;;;;;13.32;8.00;;;;;;;;;;4899526;29;20045;-71
2022/03/21 09:50:15;;;;;;;10.93;8.80;;;;;;;;;;4899183;29;20089;-72
2022/03/21 09:52:42;;;;;;;14.18;7.28;;;;;;;;;;4899139;29;20124;-72
2022/03/21 09:55:08;;;;;;;13.38;7.72;;;;;;;;;;4899406;29;20032;-71
2022/03/21 09:57:36;;;;;;;11.43;7.07;;;;;;;;;;4899620;29;20461;-73
2022/03/21 10:00:04;;;;;;;12.07;7.07;;;;;;;;;;4899615;29;20130;-72
2022/03/21 10:02:38;;;;;;;12.85;7.40;;;;;;;;;;4899200;29;20044;-73
2022/03/21 10:05:04;;;;;;;14.82;8.35;;;;;;;;;;4899181;29;20033;-73
2022/03/21 10:07:29;;;;;;;15.90;7.85;;;;;;;;;;4899897;29;20032;-70
2022/03/21 10:10:10;;;;;;;14.23;7.53;;;;;;;;;;4900010;29;20112;-70
2022/03/21 10:12:36;;;;;;;12.88;6.70;;;;;;;;;;4899617;29;20377;-73
2022/03/21 10:15:09;;;;;;;12.52;6.63;;;;;;;;;;4914161;29;20047;-74
2022/03/21 10:17:36;;;;;;;11.30;6.70;;;;;;;;;;4899565;29;20060;-78
2022/03/21 10:20:04;;;;;;;10.95;5.97;;;;;;;;;;4899283;29;20144;-73
2022/03/21 10:22:32;;;;;;;10.55;6.18;;;;;;;;;;4898907;29;20504;-72
2022/03/21 10:25:11;;;;;;;8.05;4.68;;;;;;;;;;4899340;29;20029;-72
2022/03/21 10:27:40;;;;;;;6.95;4.28;;;;;;;;;;4899267;29;20369;-73
2022/03/21 10:30:13;;;;;;;10.57;4.90;;;;;;;;;;4899255;29;20029;-72
2022/03/21 10:32:46;;;;;;;8.65;5.18;;;;;;;;;;4899121;29;20064;-70
2022/03/21 10:35:18;;;;;;;8.07;4.05;;;;;;;;;;4899128;29;20064;-75
2022/03/21 10:37:44;;;;;;;9.55;4.78;;;;;;;;;;4898896;29;20119;-72
2022/03/21 10:40:34;;;;;;;7.55;4.80;;;;;;;;;;4899423;29;20485;-71
2022/03/21 10:43:07;;;;;;;11.88;5.63;;;;;;;;;;4898760;29;20127;-72
2022/03/21 10:45:38;;;;;;;9.37;5.17;;;;;;;;;;4898867;29;20115;-71
2022/03/21 10:48:05;;;;;;;10.30;6.38;;;;;;;;;;4897878;29;20283;-71
2022/03/21 10:50:36;;;;;;;11.30;6.30;;;;;;;;;;4898458;29;20076;-79
2022/03/21 10:53:08;;;;;;;11.15;6.28;;;;;;;;;;4898339;29;20432;-79
2022/03/21 10:55:34;;;;;;;11.07;6.05;;;;;;;;;;4898488;29;20507;-76
2022/03/21 10:58:00;;;;;;;10.75;6.93;;;;;;;;;;4898663;29;20063;-78
2022/03/21 11:00:27;;;;;;;11.23;6.20;;;;;;;;;;4913764;29;20067;-76
2022/03/21 11:03:15;;;;;;;11.85;8.23;;;;;;;;;;4898376;29;20052;-78
2022/03/21 11:05:46;;;;;;;13.23;7.68;;;;;;;;;;4898862;29;20041;-77
2022/03/21 11:08:17;;;;;;;14.57;7.80;;;;;;;;;;4899064;29;20096;-80
2022/03/21 11:10:45;;;;;;;10.38;5.97;;;;;;;;;;4913587;29;20448;-77
2022/03/21 11:13:11;;;;;;;9.30;6.40;;;;;;;;;;4898773;29;20480;-77
2022/03/21 11:15:40;;;;;;;11.00;5.90;;;;;;;;;;4898537;29;20044;-78
2022/03/21 11:18:06;;;;;;;11.50;5.90;;;;;;;;;;4898524;29;20091;-77
2022/03/21 11:20:33;;;;;;;11.50;6.28;;;;;;;;;;4898338;29;20067;-75
2022/03/21 11:23:02;;;;;;;9.25;5.53;;;;;;;;;;4897701;29;20092;-78
2022/03/21 11:25:32;;;;;;;12.57;6.10;;;;;;;;;;4898326;29;20029;-76
2022/03/21 11:28:28;;;;;;;11.00;7.63;;;;;;;;;;4898105;29;20416;-77
2022/03/21 11:31:31;;;;;;;11.85;6.38;;;;;;;;;;4898003;29;20476;-75
2022/03/21 11:34:02;;;;;;;9.48;6.22;;;;;;;;;;4898070;29;20036;-77
2022/03/21 11:36:30;;;;;;;11.27;6.70;;;;;;;;;;4898131;29;20143;-75
2022/03/21 11:39:02;;;;;;;8.77;5.75;;;;;;;;;;4898173;29;20024;-75
2022/03/21 11:41:31;;;;;;;12.70;7.53;;;;;;;;;;4898111;29;20040;-80
2022/03/21 11:44:06;;;;;;;13.07;7.90;;;;;;;;;;4898077;29;20032;-79
2022/03/21 11:46:37;;;;;;;11.63;6.28;;;;;;;;;;4897472;29;20045;-78
2022/03/21 11:49:05;;;;;;;10.27;6.28;;;;;;;;;;4897886;29;20040;-79
2022/03/21 11:51:40;;;;;;;12.63;6.95;;;;;;;;;;4897722;29;20028;-79
2022/03/21 11:54:35;;;;;;;11.63;7.07;;;;;;;;;;4897526;29;20469;-80
2022/03/21 11:57:33;;;;;;;13.50;7.72;;;;;;;;;;4897364;29;20031;-77
2022/03/21 11:59:59;;;;;;;14.43;6.07;;;;;;;;;;4897300;29;20055;-76
2022/03/21 12:02:25;;;;;;;10.52;6.38;;;;;;;;;;4897837;29;20103;-79
2022/03/21 12:05:03;;;;;;;10.80;6.10;;;;;;;;;;4898079;29;20105;-80
2022/03/21 12:07:31;;;;;;;13.07;7.70;;;;;;;;;;4898050;29;20036;-77
2022/03/21 12:09:57;;;;;;;11.38;6.13;;;;;;;;;;4897840;29;20065;-79
2022/03/21 12:12:41;;;;;;;10.80;6.05;;;;;;;;;;4897816;29;20040;-78
2022/03/21 12:15:29;;;;;;;;;;;;;;;;;;4897995;29;20052;-79
2022/03/21 12:17:54;;;;;;;11.35;6.10;;;;;;;;;;4897710;29;19919;-81
2022/03/21 12:20:20;;;;;;;9.00;5.95;;;;;;;;;;4912013;29;20160;-80
2022/03/21 12:22:47;;;;;;;13.05;7.22;;;;;;;;;;4897736;29;20056;-74
2022/03/21 12:25:41;;;;;;;11.75;5.40;;;;;;;;;;4897761;29;20036;-73
2022/03/21 12:31:26;;;;;;;9.00;5.55;;;;;;;;;;4897920;29;20044;-79
2022/03/21 12:34:13;;;;;;;9.07;6.53;;;;;;;;;;4898103;29;20079;-78
2022/03/21 12:36:39;;;;;;;13.98;6.20;;;;;;;;;;4897899;29;20441;-72
2022/03/21 12:39:17;;;;;;;10.23;6.15;;;;;;;;;;4897997;29;20029;-75
2022/03/21 12:41:44;;;;;;;13.75;6.60;;;;;;;;;;4897352;29;20448;-75
2022/03/21 12:44:13;;;;;;;13.40;6.68;;;;;;;;;;4897757;29;20060;-79
2022/03/21 12:46:39;;;;;;;9.98;6.05;;;;;;;;;;4897311;29;20032;-77
2022/03/21 12:49:04;;;;;;;11.43;6.07;;;;;;;;;;4897331;29;20160;-78
2022/03/21 12:51:32;;;;;;;12.25;6.53;;;;;;;;;;4897225;29;20041;-78
2022/03/21 12:54:07;;;;;;;11.50;5.88;;;;;;;;;;4892250;29;20100;-77
2022/03/21 12:56:33;;;;;;;13.48;6.55;;;;;;;;;;4897394;29;20372;-74
2022/03/21 12:59:07;;;;;;;13.25;7.00;;;;;;;;;;4898336;29;20511;-77
2022/03/21 13:01:34;;;;;;;13.05;7.18;;;;;;;;;;4900832;29;20517;-76
2022/03/21 13:12:58;;;;;;;16.15;7.00;;;;;;;;;;4899609;29;20349;-78
2022/03/21 13:15:24;;;;;;;11.85;6.47;;;;;;;;;;4899304;29;20044;-78
2022/03/21 13:17:54;;;;;;;11.90;6.13;;;;;;;;;;4898115;29;20484;-77
2022/03/21 13:20:25;;;;;;;12.73;7.18;;;;;;;;;;4899875;29;20040;-80
2022/03/21 13:22:51;;;;;;;12.18;6.90;;;;;;;;;;4900031;29;20040;-75
2022/03/21 13:25:24;;;;;;;15.20;7.20;;;;;;;;;;4899769;29;20440;-74
2022/03/21 13:27:52;;;;;;;14.07;7.55;;;;;;;;;;4899524;29;20111;-73
2022/03/21 13:30:18;;;;;;;11.73;6.55;;;;;;;;;;4897615;29;20366;-75
2022/03/21 13:32:45;;;;;;;11.38;7.30;;;;;;;;;;4898756;29;20164;-79
2022/03/21 13:35:12;;;;;;;13.57;6.50;;;;;;;;;;4898687;29;20084;-77
2022/03/21 13:37:42;;;;;;;9.38;5.80;;;;;;;;;;4898740;29;20115;-81
2022/03/21 13:40:09;;;;;;;11.07;6.22;;;;;;;;;;4899250;29;20069;-76
2022/03/21 13:42:36;;;;;;;9.05;6.05;;;;;;;;;;4896926;29;20417;-75
2022/03/21 13:45:06;;;;;;;9.10;5.47;;;;;;;;;;4888361;29;20127;-77
2022/03/21 13:47:50;;;;;;;11.15;6.65;;;;;;;;;;4893325;29;20058;-73
2022/03/21 13:50:16;;;;;;;9.25;5.90;;;;;;;;;;4898714;29;20051;-76
2022/03/21 13:52:53;;;;;;;10.20;5.90;;;;;;;;;;4898275;29;20072;-76
2022/03/21 13:55:24;;;;;;;10.13;6.97;;;;;;;;;;4896974;29;20065;-81
2022/03/21 13:57:52;;;;;;;9.00;5.57;;;;;;;;;;4898775;29;20484;-78
2022/03/21 14:00:35;;;;;;;9.63;6.25;;;;;;;;;;4899031;29;20963;-76
2022/03/21 14:03:02;;;;;;;12.68;6.78;;;;;;;;;;4896775;29;20381;-77
2022/03/21 14:05:35;;;;;;;12.30;6.72;;;;;;;;;;4879735;29;20036;-77
2022/03/21 14:08:11;;;;;;;11.77;6.35;;;;;;;;;;4898364;29;20337;-77
2022/03/21 14:10:38;;;;;;;9.75;6.35;;;;;;;;;;4898304;29;20036;-79
2022/03/21 14:13:29;;;;;;;10.68;5.78;;;;;;;;;;4899045;29;20389;-78
2022/03/21 14:15:59;;;;;;;10.27;6.00;;;;;;;;;;4849248;29;1466208;-74
2022/03/21 14:18:28;;;;;;;10.43;5.97;;;;;;;;;;4895065;29;20392;-78
2022/03/21 14:20:55;;;;;;;8.57;5.22;;;;;;;;;;4898297;29;20111;-77
2022/03/21 14:23:21;;;;;;;10.63;5.32;;;;;;;;;;4898234;29;20662;-77
2022/03/21 14:28:32;;;;;;;10.88;5.53;;;;;;;;;;4899161;29;20052;-78
2022/03/21 14:30:58;;;;;;;10.48;5.78;;;;;;;;;;4899053;29;20032;-78
2022/03/21 14:33:26;;;;;;;9.82;5.28;;;;;;;;;;4897922;29;20120;-79
2022/03/21 14:35:52;;;;;;;9.50;5.13;;;;;;;;;;4900582;29;20028;-78
2022/03/21 14:38:20;;;;;;;11.55;5.05;;;;;;;;;;4898784;29;20041;-76
2022/03/21 14:40:46;;;;;;;12.98;6.22;;;;;;;;;;4898070;29;20087;-77
2022/03/21 14:43:12;;;;;;;12.35;5.90;;;;;;;;;;4899016;29;20390;-76
2022/03/21 14:45:38;;;;;;;13.43;6.68;;;;;;;;;;4897677;29;20184;-77
2022/03/21 14:48:06;;;;;;;8.40;5.85;;;;;;;;;;4899021;29;20064;-77
2022/03/21 14:50:33;;;;;;;10.13;6.47;;;;;;;;;;4900271;29;20036;-79
2022/03/21 14:53:00;;;;;;;11.32;5.80;;;;;;;;;;4898210;29;20072;-78
2022/03/21 14:55:26;;;;;;;9.45;5.15;;;;;;;;;;4897885;29;20527;-78
2022/03/21 14:57:52;;;;;;;10.40;5.10;;;;;;;;;;4898801;29;20041;-80
2022/03/21 15:00:20;;;;;;;11.10;5.15;;;;;;;;;;4898087;29;20036;-78
2022/03/21 15:02:45;;;;;;;10.77;5.40;;;;;;;;;;4897699;29;20037;-78
2022/03/21 15:05:11;;;;;;;10.18;5.13;;;;;;;;;;4896760;29;20435;-78
2022/03/21 15:07:38;;;;;;;8.43;5.38;;;;;;;;;;4898112;29;20067;-78
2022/03/21 15:10:23;;;;;;;8.02;4.75;;;;;;;;;;4897521;29;20036;-76
2022/03/21 15:12:56;;;;;;;7.57;5.07;;;;;;;;;;4897167;29;20051;-77
2022/03/21 15:15:23;;;;;;;11.40;6.63;;;;;;;;;;4897910;29;20044;-77
2022/03/21 15:17:50;;;;;;;14.60;6.10;;;;;;;;;;4897643;29;20048;-76
2022/03/21 15:20:17;;;;;;;9.18;5.10;;;;;;;;;;4896974;29;20028;-75